createdAt,value
2018-11-03T00:01:25.423Z,14.80
2018-11-03T00:03:54.046Z,14.70
2018-11-03T00:06:22.721Z,14.70
2018-11-03T00:08:51.395Z,14.70
2018-11-03T00:11:20.369Z,14.60
2018-11-03T00:13:48.992Z,14.60
2018-11-03T00:16:17.605Z,14.60
2018-11-03T00:18:46.310Z,14.60
2018-11-03T00:21:15.003Z,14.60
2018-11-03T00:23:43.753Z,14.60
2018-11-03T00:26:12.352Z,14.60
2018-11-03T00:28:41.123Z,14.60
2018-11-03T00:31:09.820Z,14.50
2018-11-03T00:33:38.389Z,14.20
2018-11-03T00:36:07.163Z,14.30
2018-11-03T00:38:35.782Z,14.30
2018-11-03T00:41:04.500Z,14.40
2018-11-03T00:43:33.155Z,14.20
2018-11-03T00:46:01.977Z,14.20
2018-11-03T00:48:30.903Z,14.30
2018-11-03T00:50:59.478Z,14.30
2018-11-03T00:53:28.191Z,14.30
2018-11-03T00:55:56.882Z,14.30
2018-11-03T00:58:25.505Z,14.30
2018-11-03T01:00:54.228Z,14.30
2018-11-03T01:03:22.848Z,14.30
2018-11-03T01:05:51.591Z,14.30
2018-11-03T01:08:20.238Z,14.30
2018-11-03T01:10:48.968Z,14.30
2018-11-03T01:13:17.786Z,14.20
2018-11-03T01:15:46.388Z,14.20
2018-11-03T01:18:15.018Z,14.10
2018-11-03T01:20:43.665Z,14.10
2018-11-03T01:23:12.514Z,14.10
2018-11-03T01:25:41.137Z,14.10
2018-11-03T01:28:09.787Z,14.10
2018-11-03T01:30:38.438Z,14.10
2018-11-03T01:33:07.089Z,14.10
2018-11-03T01:35:35.684Z,14.10
2018-11-03T01:38:04.328Z,14.10
2018-11-03T01:40:33.010Z,14.10
2018-11-03T01:43:01.711Z,14.10
2018-11-03T01:45:30.334Z,14.10
2018-11-03T01:47:59.000Z,14.00
2018-11-03T01:50:27.627Z,14.00
2018-11-03T01:52:56.217Z,14.10
2018-11-03T01:55:24.843Z,14.10
2018-11-03T01:57:53.407Z,14.00
2018-11-03T02:00:22.006Z,14.00
2018-11-03T02:02:50.615Z,14.00
2018-11-03T02:05:20.154Z,14.00
2018-11-03T02:07:49.039Z,14.00
2018-11-03T02:10:17.654Z,14.00
2018-11-03T02:12:46.265Z,14.00
2018-11-03T02:15:14.923Z,14.00
2018-11-03T02:17:43.563Z,14.00
2018-11-03T02:20:12.436Z,14.10
2018-11-03T02:22:41.354Z,14.00
2018-11-03T02:25:11.353Z,14.00
2018-11-03T02:27:40.126Z,14.00
2018-11-03T02:30:09.886Z,14.00
2018-11-03T02:32:38.381Z,14.00
2018-11-03T02:35:07.496Z,14.00
2018-11-03T02:37:36.138Z,14.00
2018-11-03T02:40:06.694Z,14.00
2018-11-03T02:42:36.051Z,14.00
2018-11-03T02:45:05.923Z,14.00
2018-11-03T02:47:35.163Z,14.00
2018-11-03T02:50:06.110Z,14.00
2018-11-03T02:52:34.677Z,14.00
2018-11-03T02:55:03.646Z,14.00
2018-11-03T02:57:32.222Z,14.00
2018-11-03T03:00:01.184Z,14.00
2018-11-03T03:02:29.836Z,14.00
2018-11-03T03:04:58.541Z,14.00
2018-11-03T03:07:27.450Z,14.00
2018-11-03T03:09:56.356Z,13.90
2018-11-03T03:12:25.066Z,14.00
2018-11-03T03:14:54.059Z,14.00
2018-11-03T03:17:22.680Z,14.00
2018-11-03T03:19:51.548Z,14.00
2018-11-03T03:22:20.135Z,14.00
2018-11-03T03:24:48.789Z,13.90
2018-11-03T03:27:18.357Z,14.00
2018-11-03T03:29:47.008Z,13.90
2018-11-03T03:32:15.636Z,13.90
2018-11-03T03:34:44.294Z,13.90
2018-11-03T03:37:13.679Z,13.90
2018-11-03T03:39:42.462Z,13.90
2018-11-03T03:42:11.244Z,14.00
2018-11-03T03:44:40.358Z,14.00
2018-11-03T03:47:09.698Z,13.90
2018-11-03T03:49:38.260Z,13.90
2018-11-03T03:52:06.755Z,13.90
2018-11-03T03:54:35.271Z,13.90
2018-11-03T03:57:03.881Z,14.00
2018-11-03T03:59:32.475Z,13.90
2018-11-03T04:02:00.991Z,13.90
2018-11-03T04:04:29.641Z,13.90
2018-11-03T04:06:58.315Z,13.90
2018-11-03T04:09:26.791Z,13.90
2018-11-03T04:11:55.312Z,13.90
2018-11-03T04:14:23.875Z,13.90
2018-11-03T04:16:52.363Z,13.90
2018-11-03T04:19:20.891Z,13.90
2018-11-03T04:21:49.392Z,13.90
2018-11-03T04:24:17.878Z,14.00
2018-11-03T04:26:46.528Z,14.00
2018-11-03T04:29:15.008Z,14.00
2018-11-03T04:31:43.632Z,14.00
2018-11-03T04:34:12.161Z,13.90
2018-11-03T04:36:40.636Z,13.90
2018-11-03T04:39:09.170Z,13.90
2018-11-03T04:41:37.635Z,13.90
2018-11-03T04:44:06.148Z,13.90
2018-11-03T04:46:34.591Z,13.90
2018-11-03T04:49:03.958Z,13.90
2018-11-03T04:51:33.806Z,13.90
2018-11-03T04:54:02.291Z,13.90
2018-11-03T04:56:30.771Z,13.90
2018-11-03T04:58:59.333Z,13.80
2018-11-03T05:01:27.787Z,13.90
2018-11-03T05:03:56.300Z,13.90
2018-11-03T05:06:24.795Z,13.90
2018-11-03T05:08:53.288Z,13.90
2018-11-03T05:11:21.844Z,13.90
2018-11-03T05:13:50.298Z,13.80
2018-11-03T05:16:18.811Z,13.80
2018-11-03T05:18:47.307Z,13.80
2018-11-03T05:21:16.555Z,13.80
2018-11-03T05:23:44.966Z,13.80
2018-11-03T05:26:13.600Z,13.80
2018-11-03T05:28:43.302Z,13.90
2018-11-03T05:31:11.980Z,13.80
2018-11-03T05:33:41.198Z,13.80
2018-11-03T05:36:09.782Z,13.80
2018-11-03T05:38:38.394Z,13.90
2018-11-03T05:41:06.962Z,13.90
2018-11-03T05:43:35.459Z,13.80
2018-11-03T05:46:03.983Z,13.80
2018-11-03T05:48:32.484Z,13.80
2018-11-03T05:51:02.134Z,13.80
2018-11-03T05:53:34.580Z,13.80
2018-11-03T05:56:03.128Z,13.80
2018-11-03T05:58:31.634Z,13.80
2018-11-03T06:01:00.185Z,13.80
2018-11-03T06:03:28.658Z,13.70
2018-11-03T06:05:57.219Z,13.70
2018-11-03T06:08:25.671Z,13.70
2018-11-03T06:10:54.159Z,13.70
2018-11-03T06:13:22.654Z,13.80
2018-11-03T06:15:51.147Z,13.80
2018-11-03T06:18:19.676Z,13.80
2018-11-03T06:20:48.194Z,13.80
2018-11-03T06:23:16.726Z,13.80
2018-11-03T06:25:45.205Z,13.90
2018-11-03T06:28:14.410Z,13.90
2018-11-03T06:30:42.866Z,13.90
2018-11-03T06:33:11.402Z,13.90
2018-11-03T06:35:39.894Z,13.80
2018-11-03T06:38:08.344Z,13.80
2018-11-03T06:40:36.847Z,13.80
2018-11-03T06:43:05.862Z,13.80
2018-11-03T06:45:34.364Z,13.80
2018-11-03T06:48:02.846Z,13.80
2018-11-03T06:50:31.327Z,13.80
2018-11-03T06:52:59.871Z,13.80
2018-11-03T06:55:28.389Z,13.70
2018-11-03T06:57:56.860Z,13.70
2018-11-03T07:00:25.364Z,13.70
2018-11-03T07:02:54.033Z,13.70
2018-11-03T07:05:22.658Z,13.70
2018-11-03T07:07:51.231Z,13.70
2018-11-03T07:10:19.817Z,13.70
2018-11-03T07:12:49.341Z,13.60
2018-11-03T07:15:25.491Z,13.70
2018-11-03T07:17:54.010Z,13.70
2018-11-03T07:20:22.654Z,13.60
2018-11-03T07:22:51.142Z,13.70
2018-11-03T07:25:19.736Z,13.70
2018-11-03T07:27:48.235Z,13.70
2018-11-03T07:30:17.822Z,13.70
2018-11-03T07:32:46.342Z,13.80
2018-11-03T07:35:16.564Z,13.80
2018-11-03T07:37:46.000Z,13.80
2018-11-03T07:40:14.514Z,13.90
2018-11-03T07:42:43.422Z,13.90
2018-11-03T07:45:11.885Z,13.90
2018-11-03T07:47:44.445Z,14.00
2018-11-03T07:50:13.653Z,14.00
2018-11-03T07:52:43.615Z,14.00
2018-11-03T07:58:35.571Z,14.10
2018-11-03T08:01:05.379Z,14.10
2018-11-03T08:03:38.897Z,14.10
2018-11-03T08:06:08.251Z,14.10
2018-11-03T08:08:36.727Z,14.20
2018-11-03T08:11:06.063Z,14.20
2018-11-03T08:13:36.147Z,14.20
2018-11-03T08:16:06.143Z,14.20
2018-11-03T08:18:35.655Z,14.20
2018-11-03T08:21:04.214Z,14.20
2018-11-03T08:23:32.793Z,14.10
2018-11-03T08:26:01.790Z,14.10
2018-11-03T08:28:31.771Z,14.10
2018-11-03T08:31:02.817Z,14.10
2018-11-03T08:33:31.396Z,14.10
2018-11-03T08:35:59.981Z,14.20
2018-11-03T08:38:28.458Z,14.10
2018-11-03T08:40:58.997Z,14.20
2018-11-03T08:43:28.172Z,14.20
2018-11-03T08:45:56.671Z,14.20
2018-11-03T08:48:25.372Z,14.20
2018-11-03T08:50:54.850Z,14.10
2018-11-03T08:53:24.103Z,14.10
2018-11-03T08:55:55.426Z,14.10
2018-11-03T08:58:27.622Z,14.10
2018-11-03T09:00:56.095Z,14.10
2018-11-03T09:03:24.629Z,14.10
2018-11-03T09:05:53.362Z,14.10
2018-11-03T09:08:21.848Z,14.10
2018-11-03T09:10:50.386Z,14.10
2018-11-03T09:13:19.031Z,14.10
2018-11-03T09:15:47.526Z,14.10
2018-11-03T09:18:16.008Z,14.10
2018-11-03T09:20:45.526Z,14.10
2018-11-03T09:23:14.091Z,14.10
2018-11-03T09:25:42.702Z,14.10
2018-11-03T09:28:11.171Z,14.20
2018-11-03T09:30:39.810Z,14.20
2018-11-03T09:33:08.316Z,14.20
2018-11-03T09:35:36.838Z,14.20
2018-11-03T09:38:06.011Z,14.20
2018-11-03T09:40:34.658Z,14.20
2018-11-03T09:43:03.207Z,14.10
2018-11-03T09:45:31.667Z,14.20
2018-11-03T09:48:00.160Z,14.10
2018-11-03T09:50:28.827Z,14.10
2018-11-03T09:52:57.317Z,14.10
2018-11-03T09:55:25.810Z,14.00
2018-11-03T09:57:54.333Z,14.00
2018-11-03T10:00:22.962Z,14.00
2018-11-03T10:02:51.447Z,14.00
2018-11-03T10:05:19.947Z,14.00
2018-11-03T10:07:48.460Z,14.00
2018-11-03T10:10:18.213Z,14.00
2018-11-03T10:12:46.784Z,14.10
2018-11-03T10:15:17.679Z,14.00
2018-11-03T10:17:46.663Z,14.00
2018-11-03T10:20:15.168Z,14.00
2018-11-03T10:22:43.719Z,14.00
2018-11-03T10:25:17.222Z,14.00
2018-11-03T10:27:46.105Z,14.00
2018-11-03T10:30:15.544Z,14.00
2018-11-03T10:32:44.332Z,14.00
2018-11-03T10:35:13.343Z,14.10
2018-11-03T10:37:42.017Z,14.10
2018-11-03T10:40:13.323Z,14.10
2018-11-03T10:42:42.111Z,14.10
2018-11-03T10:45:11.886Z,14.10
2018-11-03T10:47:40.813Z,14.10
2018-11-03T10:50:12.069Z,14.10
2018-11-03T10:52:41.499Z,14.10
2018-11-03T10:55:11.375Z,14.10
2018-11-03T10:57:39.999Z,14.10
2018-11-03T11:00:17.871Z,14.00
2018-11-03T11:02:51.716Z,14.00
2018-11-03T11:05:25.481Z,14.00
2018-11-03T11:07:59.337Z,14.00
2018-11-03T11:10:33.210Z,14.00
2018-11-03T11:13:38.145Z,14.00
2018-11-03T11:16:06.711Z,14.00
2018-11-03T11:18:35.268Z,13.90
2018-11-03T11:21:03.794Z,13.90
2018-11-03T11:23:32.403Z,14.00
2018-11-03T11:26:01.017Z,14.00
2018-11-03T11:28:29.543Z,14.00
2018-11-03T11:30:58.117Z,13.90
2018-11-03T11:33:26.673Z,13.90
2018-11-03T11:35:55.444Z,13.90
2018-11-03T11:38:24.027Z,13.90
2018-11-03T11:40:52.609Z,13.90
2018-11-03T11:43:21.323Z,13.90
2018-11-03T11:45:49.893Z,13.90
2018-11-03T11:48:18.499Z,13.90
2018-11-03T11:50:47.610Z,13.80
2018-11-03T11:53:16.225Z,13.90
2018-11-03T11:55:45.722Z,13.90
2018-11-03T11:58:14.277Z,13.90
2018-11-03T12:00:42.857Z,13.90
2018-11-03T12:03:11.419Z,13.80
2018-11-03T12:05:40.004Z,13.80
2018-11-03T12:08:08.608Z,13.80
2018-11-03T12:10:37.204Z,13.80
2018-11-03T12:13:05.892Z,13.90
2018-11-03T12:15:34.482Z,13.80
2018-11-03T12:18:03.096Z,13.80
2018-11-03T12:20:31.599Z,13.80
2018-11-03T12:23:00.174Z,13.80
2018-11-03T12:25:28.748Z,13.80
2018-11-03T12:27:57.386Z,13.80
2018-11-03T12:30:25.896Z,13.80
2018-11-03T12:32:54.469Z,13.80
2018-11-03T12:35:23.138Z,13.80
2018-11-03T12:37:51.676Z,13.80
2018-11-03T12:40:20.267Z,13.80
2018-11-03T12:42:48.825Z,13.80
2018-11-03T12:45:17.591Z,13.90
2018-11-03T12:47:46.160Z,13.90
2018-11-03T12:50:16.122Z,13.90
2018-11-03T12:52:44.889Z,13.90
2018-11-03T12:55:13.429Z,13.90
2018-11-03T12:57:42.674Z,13.90
2018-11-03T13:00:12.783Z,13.80
2018-11-03T13:02:42.277Z,13.80
2018-11-03T13:05:11.011Z,13.80
2018-11-03T13:07:40.547Z,13.70
2018-11-03T13:10:09.932Z,13.70
2018-11-03T13:12:39.134Z,13.70
2018-11-03T13:15:08.453Z,13.70
2018-11-03T13:17:37.277Z,13.70
2018-11-03T13:20:07.089Z,13.70
2018-11-03T13:22:36.051Z,13.60
2018-11-03T13:25:04.939Z,13.70
2018-11-03T13:27:33.524Z,13.60
2018-11-03T13:30:02.148Z,13.60
2018-11-03T13:32:30.684Z,13.50
2018-11-03T13:34:59.279Z,13.50
2018-11-03T13:37:27.844Z,13.50
2018-11-03T13:39:56.372Z,13.40
2018-11-03T13:42:25.008Z,13.40
2018-11-03T13:44:53.726Z,13.40
2018-11-03T13:47:22.755Z,13.40
2018-11-03T13:49:51.252Z,13.30
2018-11-03T13:52:19.825Z,13.30
2018-11-03T13:54:48.539Z,13.30
2018-11-03T13:57:17.143Z,13.30
2018-11-03T13:59:45.952Z,13.20
2018-11-03T14:02:14.510Z,13.20
2018-11-03T14:04:43.338Z,13.10
2018-11-03T14:07:45.957Z,13.10
2018-11-03T14:10:15.484Z,13.00
2018-11-03T14:12:44.786Z,12.90
2018-11-03T14:15:14.721Z,12.90
2018-11-03T14:17:43.327Z,12.80
2018-11-03T14:20:12.976Z,12.80
2018-11-03T14:22:41.966Z,12.90
2018-11-03T14:25:13.973Z,12.80
2018-11-03T14:27:43.593Z,12.80
2018-11-03T14:30:12.988Z,12.80
2018-11-03T14:32:41.665Z,12.80
2018-11-03T14:35:11.003Z,12.90
2018-11-03T14:37:40.056Z,12.80
2018-11-03T14:40:11.062Z,12.80
2018-11-03T14:42:40.313Z,12.80
2018-11-03T14:45:09.969Z,12.80
2018-11-03T14:47:38.503Z,12.80
2018-11-03T14:50:08.093Z,12.70
2018-11-03T14:52:37.900Z,12.80
2018-11-03T14:55:07.588Z,12.70
2018-11-03T14:57:36.220Z,12.70
2018-11-03T15:00:07.057Z,12.60
2018-11-03T15:02:35.621Z,12.70
2018-11-03T15:05:04.264Z,12.60
2018-11-03T15:07:32.872Z,12.60
2018-11-03T15:10:01.484Z,12.60
2018-11-03T15:12:30.046Z,12.60
2018-11-03T15:14:58.589Z,12.50
2018-11-03T15:17:27.111Z,12.60
2018-11-03T15:19:55.827Z,12.50
2018-11-03T15:22:24.825Z,12.60
2018-11-03T15:24:53.570Z,12.50
2018-11-03T15:27:22.473Z,12.50
2018-11-03T15:29:51.175Z,12.50
2018-11-03T15:32:19.713Z,12.50
2018-11-03T15:34:48.274Z,12.40
2018-11-03T15:37:16.921Z,12.40
2018-11-03T15:39:45.539Z,12.40
2018-11-03T15:42:14.227Z,12.30
2018-11-03T15:44:42.804Z,12.30
2018-11-03T15:47:11.405Z,12.30
2018-11-03T15:49:40.236Z,12.30
2018-11-03T15:52:09.201Z,12.20
2018-11-03T15:54:37.861Z,12.20
2018-11-03T15:57:06.646Z,12.10
2018-11-03T15:59:35.342Z,12.20
2018-11-03T16:02:03.831Z,12.10
2018-11-03T16:04:32.551Z,12.10
2018-11-03T16:07:01.184Z,12.10
2018-11-03T16:09:29.779Z,12.00
2018-11-03T16:11:58.433Z,12.00
2018-11-03T16:14:26.981Z,12.00
2018-11-03T16:16:55.517Z,12.00
2018-11-03T16:19:24.139Z,12.00
2018-11-03T16:21:52.722Z,12.00
2018-11-03T16:24:21.290Z,12.00
2018-11-03T16:26:50.056Z,12.00
2018-11-03T16:29:18.539Z,11.90
2018-11-03T16:31:47.127Z,12.00
2018-11-03T16:34:15.809Z,12.00
2018-11-03T16:36:44.333Z,12.00
2018-11-03T16:39:13.041Z,12.00
2018-11-03T16:41:41.638Z,11.90
2018-11-03T16:44:10.257Z,11.90
2018-11-03T16:46:38.838Z,11.90
2018-11-03T16:49:07.523Z,11.90
2018-11-03T16:51:36.132Z,11.80
2018-11-03T16:54:04.808Z,11.80
2018-11-03T16:56:33.355Z,11.80
2018-11-03T16:59:01.916Z,11.80
2018-11-03T17:01:30.503Z,11.70
2018-11-03T17:03:59.004Z,11.70
2018-11-03T17:06:27.924Z,11.70
2018-11-03T17:08:56.438Z,11.70
2018-11-03T17:11:25.048Z,11.70
2018-11-03T17:13:53.591Z,11.70
2018-11-03T17:16:22.107Z,11.70
2018-11-03T17:18:50.905Z,11.70
2018-11-03T17:21:19.321Z,11.70
2018-11-03T17:23:47.823Z,11.60
2018-11-03T17:26:16.786Z,11.70
2018-11-03T17:28:45.718Z,11.60
2018-11-03T17:31:14.326Z,11.60
2018-11-03T17:33:42.923Z,11.60
2018-11-03T17:36:11.619Z,11.60
2018-11-03T17:38:40.291Z,11.60
2018-11-03T17:41:08.890Z,11.50
2018-11-03T17:43:37.392Z,11.50
2018-11-03T17:46:06.003Z,11.50
2018-11-03T17:48:34.555Z,11.50
2018-11-03T17:51:03.110Z,11.50
2018-11-03T17:53:31.691Z,11.50
2018-11-03T17:56:00.257Z,11.50
2018-11-03T17:58:28.815Z,11.50
2018-11-03T18:00:57.352Z,11.50
2018-11-03T18:03:25.912Z,11.40
2018-11-03T18:05:54.474Z,11.40
2018-11-03T18:08:23.827Z,11.40
2018-11-03T18:10:52.450Z,11.40
2018-11-03T18:13:21.094Z,11.40
2018-11-03T18:15:49.545Z,11.40
2018-11-03T18:18:18.073Z,11.40
2018-11-03T18:20:47.152Z,11.40
2018-11-03T18:23:15.684Z,11.40
2018-11-03T18:25:44.242Z,11.30
2018-11-03T18:28:12.716Z,11.40
2018-11-03T18:30:41.361Z,11.20
2018-11-03T18:33:10.158Z,11.20
2018-11-03T18:35:38.639Z,11.20
2018-11-03T18:38:07.424Z,11.20
2018-11-03T18:40:36.149Z,11.20
2018-11-03T18:43:05.177Z,11.20
2018-11-03T18:45:33.749Z,11.20
2018-11-03T18:48:02.369Z,11.20
2018-11-03T18:50:30.897Z,11.20
2018-11-03T18:52:59.502Z,11.20
2018-11-03T18:55:28.047Z,11.20
2018-11-03T18:57:56.575Z,11.20
2018-11-03T19:00:25.211Z,11.20
2018-11-03T19:02:53.824Z,11.20
2018-11-03T19:05:22.493Z,11.20
2018-11-03T19:07:51.061Z,11.20
2018-11-03T19:10:19.663Z,11.20
2018-11-03T19:12:48.302Z,11.20
2018-11-03T19:15:16.948Z,11.20
2018-11-03T19:17:45.606Z,11.20
2018-11-03T19:20:15.235Z,11.10
2018-11-03T19:22:43.876Z,11.10
2018-11-03T19:25:13.862Z,11.10
2018-11-03T19:27:42.442Z,11.10
2018-11-03T19:30:12.192Z,11.00
2018-11-03T19:32:42.495Z,11.00
2018-11-03T19:35:11.171Z,11.00
2018-11-03T19:37:40.413Z,11.00
2018-11-03T19:40:10.290Z,11.00
2018-11-03T19:42:39.109Z,11.00
2018-11-03T19:45:08.455Z,11.00
2018-11-03T19:47:37.222Z,10.90
2018-11-03T19:50:06.569Z,10.90
2018-11-03T19:52:35.169Z,10.90
2018-11-03T19:55:03.874Z,10.90
2018-11-03T19:57:32.402Z,10.90
2018-11-03T20:00:00.962Z,10.90
2018-11-03T20:02:29.639Z,10.90
2018-11-03T20:04:58.171Z,10.90
2018-11-03T20:07:26.737Z,10.90
2018-11-03T20:09:55.573Z,10.90
2018-11-03T20:12:24.122Z,10.90
2018-11-03T20:14:52.671Z,10.90
2018-11-03T20:17:21.307Z,10.90
2018-11-03T20:19:49.800Z,11.00
2018-11-03T20:22:18.396Z,11.00
2018-11-03T20:24:47.114Z,11.00
2018-11-03T20:27:15.721Z,11.00
2018-11-03T20:29:44.364Z,11.00
2018-11-03T20:32:12.955Z,11.00
2018-11-03T20:34:41.614Z,10.90
2018-11-03T20:37:10.215Z,10.90
2018-11-03T20:39:38.868Z,10.90
2018-11-03T20:42:07.455Z,10.90
2018-11-03T20:44:36.020Z,10.90
2018-11-03T20:47:04.726Z,10.90
2018-11-03T20:49:33.304Z,10.90
2018-11-03T20:52:01.942Z,10.90
2018-11-03T20:54:30.817Z,10.90
2018-11-03T20:57:33.560Z,10.90
2018-11-03T21:00:02.183Z,10.80
2018-11-03T21:02:30.782Z,10.80
2018-11-03T21:04:59.403Z,10.80
2018-11-03T21:07:28.076Z,10.80
2018-11-03T21:09:56.661Z,10.80
2018-11-03T21:12:25.552Z,10.70
2018-11-03T21:14:54.193Z,10.70
2018-11-03T21:17:22.776Z,10.70
2018-11-03T21:19:51.399Z,10.80
2018-11-03T21:22:19.968Z,10.80
2018-11-03T21:24:48.582Z,10.70
2018-11-03T21:27:17.161Z,10.80
2018-11-03T21:29:45.712Z,10.80
2018-11-03T21:32:14.428Z,10.70
2018-11-03T21:34:42.933Z,10.70
2018-11-03T21:37:11.430Z,10.70
2018-11-03T21:39:40.001Z,10.70
2018-11-03T21:42:08.588Z,10.70
2018-11-03T21:44:37.093Z,10.70
2018-11-03T21:47:05.737Z,10.70
2018-11-03T21:49:34.256Z,10.60
2018-11-03T21:52:02.816Z,10.70
2018-11-03T21:54:31.350Z,10.70
2018-11-03T21:56:59.958Z,10.70
2018-11-03T21:59:28.502Z,10.70
2018-11-03T22:01:57.063Z,10.70
2018-11-03T22:04:25.698Z,10.70
2018-11-03T22:06:54.299Z,10.70
2018-11-03T22:09:22.872Z,10.70
2018-11-03T22:11:51.650Z,10.70
2018-11-03T22:14:20.229Z,10.70
2018-11-03T22:16:48.826Z,10.60
2018-11-03T22:19:17.386Z,10.60
2018-11-03T22:21:46.825Z,10.70
2018-11-03T22:24:15.793Z,10.70
2018-11-03T22:26:44.406Z,10.70
2018-11-03T22:29:13.361Z,10.70
2018-11-03T22:31:42.101Z,10.60
2018-11-03T22:34:11.516Z,10.60
2018-11-03T22:36:40.154Z,10.50
2018-11-03T22:39:09.086Z,10.60
2018-11-03T22:41:38.721Z,10.60
2018-11-03T22:44:08.391Z,10.60
2018-11-03T22:46:37.093Z,10.50
2018-11-03T22:49:05.815Z,10.60
2018-11-03T22:51:34.450Z,10.60
2018-11-03T22:54:03.165Z,10.60
2018-11-03T22:56:34.294Z,10.60
2018-11-03T22:59:08.339Z,10.60
2018-11-03T23:02:03.199Z,10.60
2018-11-03T23:08:02.514Z,10.60
2018-11-03T23:10:31.335Z,10.60
2018-11-03T23:13:00.056Z,10.60
2018-11-03T23:15:28.896Z,10.60
2018-11-03T23:17:57.668Z,10.60
2018-11-03T23:20:26.371Z,10.60
2018-11-03T23:22:55.247Z,10.60
2018-11-03T23:25:24.040Z,10.60
2018-11-03T23:27:53.062Z,10.60
2018-11-03T23:30:22.003Z,10.60
2018-11-03T23:32:50.700Z,10.60
2018-11-03T23:35:19.379Z,10.60
2018-11-03T23:37:48.143Z,10.60
2018-11-03T23:40:16.728Z,10.60
2018-11-03T23:42:45.374Z,10.60
2018-11-03T23:45:14.035Z,10.50
2018-11-03T23:47:42.605Z,10.50
2018-11-03T23:50:13.010Z,10.60
2018-11-03T23:52:45.738Z,10.60
2018-11-03T23:55:14.413Z,10.50
2018-11-03T23:57:43.202Z,10.60
